sensor_id;sensor_type;location;lat;lon;timestamp;pressure;altitude;pressure_sealevel;temperature;humidity
63306;BME280;50735;52.060;1.248;2022-08-03T00:01:29;101064.95;;;18.81;56.86
63306;BME280;50735;52.060;1.248;2022-08-03T00:03:56;101069.96;;;19.11;56.50
63306;BME280;50735;52.060;1.248;2022-08-03T00:06:24;101066.23;;;19.49;56.01
63306;BME280;50735;52.060;1.248;2022-08-03T00:08:51;101064.48;;;19.25;56.22
63306;BME280;50735;52.060;1.248;2022-08-03T00:11:18;101062.50;;;18.90;56.57
63306;BME280;50735;52.060;1.248;2022-08-03T00:13:46;101063.13;;;18.82;56.79
63306;BME280;50735;52.060;1.248;2022-08-03T00:16:13;101066.18;;;18.90;56.42
63306;BME280;50735;52.060;1.248;2022-08-03T00:18:40;101064.92;;;19.25;56.02
63306;BME280;50735;52.060;1.248;2022-08-03T00:21:07;101061.45;;;19.35;55.83
63306;BME280;50735;52.060;1.248;2022-08-03T00:23:59;101061.27;;;19.56;55.75
63306;BME280;50735;52.060;1.248;2022-08-03T00:26:26;101061.62;;;19.14;56.31
63306;BME280;50735;52.060;1.248;2022-08-03T00:28:53;101060.78;;;19.18;56.18
63306;BME280;50735;52.060;1.248;2022-08-03T00:31:19;101054.89;;;18.99;56.06
63306;BME280;50735;52.060;1.248;2022-08-03T00:33:46;101053.83;;;18.92;56.22
63306;BME280;50735;52.060;1.248;2022-08-03T00:36:12;101053.80;;;19.33;56.06
63306;BME280;50735;52.060;1.248;2022-08-03T00:38:40;101052.14;;;19.23;55.86
63306;BME280;50735;52.060;1.248;2022-08-03T00:41:07;101045.80;;;19.02;55.94
63306;BME280;50735;52.060;1.248;2022-08-03T00:43:34;101045.91;;;18.85;56.26
63306;BME280;50735;52.060;1.248;2022-08-03T00:46:01;101045.75;;;18.85;56.33
63306;BME280;50735;52.060;1.248;2022-08-03T00:48:28;101046.65;;;19.12;55.97
63306;BME280;50735;52.060;1.248;2022-08-03T00:50:55;101043.64;;;19.23;56.04
63306;BME280;50735;52.060;1.248;2022-08-03T00:53:22;101045.55;;;18.98;56.27
63306;BME280;50735;52.060;1.248;2022-08-03T00:55:50;101045.23;;;19.16;56.17
63306;BME280;50735;52.060;1.248;2022-08-03T00:58:17;101044.76;;;19.24;55.82
63306;BME280;50735;52.060;1.248;2022-08-03T01:00:44;101043.23;;;18.97;56.06
63306;BME280;50735;52.060;1.248;2022-08-03T01:03:11;101038.80;;;18.52;56.76
63306;BME280;50735;52.060;1.248;2022-08-03T01:05:48;101042.36;;;19.10;56.19
63306;BME280;50735;52.060;1.248;2022-08-03T01:08:22;101042.98;;;18.90;56.30
63306;BME280;50735;52.060;1.248;2022-08-03T01:10:56;101041.81;;;18.82;56.36
63306;BME280;50735;52.060;1.248;2022-08-03T01:13:30;101043.21;;;18.89;56.27
63306;BME280;50735;52.060;1.248;2022-08-03T01:16:04;101042.38;;;19.17;55.93
63306;BME280;50735;52.060;1.248;2022-08-03T01:18:37;101042.23;;;19.21;55.82
63306;BME280;50735;52.060;1.248;2022-08-03T01:21:09;101034.53;;;19.05;55.69
63306;BME280;50735;52.060;1.248;2022-08-03T01:23:51;101035.28;;;18.95;55.92
63306;BME280;50735;52.060;1.248;2022-08-03T01:26:37;101030.88;;;18.87;56.01
63306;BME280;50735;52.060;1.248;2022-08-03T01:29:31;101028.89;;;18.76;56.19
63306;BME280;50735;52.060;1.248;2022-08-03T01:32:07;101029.35;;;18.97;56.07
63306;BME280;50735;52.060;1.248;2022-08-03T01:34:41;101027.00;;;19.10;55.67
63306;BME280;50735;52.060;1.248;2022-08-03T01:37:10;101029.29;;;18.79;56.60
63306;BME280;50735;52.060;1.248;2022-08-03T01:39:40;101027.87;;;18.81;56.29
63306;BME280;50735;52.060;1.248;2022-08-03T01:42:10;101027.68;;;18.51;57.25
63306;BME280;50735;52.060;1.248;2022-08-03T01:44:40;101024.46;;;18.61;56.77
63306;BME280;50735;52.060;1.248;2022-08-03T01:47:09;101027.58;;;18.75;56.39
63306;BME280;50735;52.060;1.248;2022-08-03T01:49:39;101024.09;;;18.85;55.95
63306;BME280;50735;52.060;1.248;2022-08-03T01:52:10;101020.77;;;18.94;57.02
63306;BME280;50735;52.060;1.248;2022-08-03T01:54:42;101019.75;;;18.88;56.41
63306;BME280;50735;52.060;1.248;2022-08-03T01:57:10;101019.34;;;18.55;56.78
63306;BME280;50735;52.060;1.248;2022-08-03T01:59:38;101017.34;;;18.49;56.92
63306;BME280;50735;52.060;1.248;2022-08-03T02:02:06;101017.90;;;18.61;56.73
63306;BME280;50735;52.060;1.248;2022-08-03T02:04:34;101014.23;;;18.65;56.55
63306;BME280;50735;52.060;1.248;2022-08-03T02:07:05;101016.97;;;18.58;56.17
63306;BME280;50735;52.060;1.248;2022-08-03T02:09:33;101015.40;;;18.75;56.54
63306;BME280;50735;52.060;1.248;2022-08-03T02:12:03;101020.80;;;18.39;56.94
63306;BME280;50735;52.060;1.248;2022-08-03T02:14:32;101016.41;;;18.48;56.69
63306;BME280;50735;52.060;1.248;2022-08-03T02:17:01;101012.08;;;18.47;56.73
63306;BME280;50735;52.060;1.248;2022-08-03T02:19:29;101019.60;;;18.17;57.40
63306;BME280;50735;52.060;1.248;2022-08-03T02:21:59;101019.25;;;18.00;57.76
63306;BME280;50735;52.060;1.248;2022-08-03T02:24:27;101018.00;;;17.95;57.87
63306;BME280;50735;52.060;1.248;2022-08-03T02:26:55;101022.62;;;18.09;57.96
63306;BME280;50735;52.060;1.248;2022-08-03T02:29:25;101027.04;;;17.53;58.99
63306;BME280;50735;52.060;1.248;2022-08-03T02:31:54;101022.46;;;17.53;58.82
63306;BME280;50735;52.060;1.248;2022-08-03T02:34:26;101022.76;;;17.77;58.85
63306;BME280;50735;52.060;1.248;2022-08-03T02:36:57;101020.43;;;17.75;58.34
63306;BME280;50735;52.060;1.248;2022-08-03T02:39:27;101018.51;;;17.79;58.84
63306;BME280;50735;52.060;1.248;2022-08-03T02:41:58;101016.38;;;17.55;58.79
63306;BME280;50735;52.060;1.248;2022-08-03T02:44:27;101018.78;;;17.86;58.58
63306;BME280;50735;52.060;1.248;2022-08-03T02:46:59;101019.62;;;17.96;58.69
63306;BME280;50735;52.060;1.248;2022-08-03T02:49:28;101019.98;;;18.00;58.17
63306;BME280;50735;52.060;1.248;2022-08-03T02:51:56;101019.02;;;17.86;59.09
63306;BME280;50735;52.060;1.248;2022-08-03T02:54:26;101016.83;;;17.90;58.80
63306;BME280;50735;52.060;1.248;2022-08-03T02:56:53;101015.56;;;17.65;58.91
63306;BME280;50735;52.060;1.248;2022-08-03T02:59:23;101018.05;;;17.51;59.29
63306;BME280;50735;52.060;1.248;2022-08-03T03:01:51;101019.81;;;17.67;59.34
63306;BME280;50735;52.060;1.248;2022-08-03T03:04:20;101017.81;;;17.39;59.65
63306;BME280;50735;52.060;1.248;2022-08-03T03:06:48;101015.16;;;17.80;59.16
63306;BME280;50735;52.060;1.248;2022-08-03T03:09:16;101016.68;;;17.72;58.88
63306;BME280;50735;52.060;1.248;2022-08-03T03:11:43;101016.39;;;17.85;58.86
63306;BME280;50735;52.060;1.248;2022-08-03T03:14:12;101014.19;;;17.70;58.63
63306;BME280;50735;52.060;1.248;2022-08-03T03:16:41;101020.97;;;17.58;59.53
63306;BME280;50735;52.060;1.248;2022-08-03T03:19:10;101022.80;;;17.52;59.31
63306;BME280;50735;52.060;1.248;2022-08-03T03:21:39;101021.11;;;17.49;59.73
63306;BME280;50735;52.060;1.248;2022-08-03T03:24:07;101013.30;;;17.20;60.09
63306;BME280;50735;52.060;1.248;2022-08-03T03:26:34;101013.01;;;17.47;59.84
63306;BME280;50735;52.060;1.248;2022-08-03T03:29:02;101011.79;;;17.15;59.56
63306;BME280;50735;52.060;1.248;2022-08-03T03:31:29;101012.38;;;17.50;59.85
63306;BME280;50735;52.060;1.248;2022-08-03T03:33:57;101011.18;;;17.41;59.43
63306;BME280;50735;52.060;1.248;2022-08-03T03:36:24;101013.75;;;17.46;59.98
63306;BME280;50735;52.060;1.248;2022-08-03T03:38:51;101013.88;;;17.46;59.93
63306;BME280;50735;52.060;1.248;2022-08-03T03:41:18;101010.72;;;17.36;60.25
63306;BME280;50735;52.060;1.248;2022-08-03T03:43:46;101011.94;;;17.49;59.76
63306;BME280;50735;52.060;1.248;2022-08-03T03:46:14;101013.17;;;17.51;59.83
63306;BME280;50735;52.060;1.248;2022-08-03T03:48:41;101015.33;;;17.27;60.45
63306;BME280;50735;52.060;1.248;2022-08-03T03:51:10;101019.33;;;17.11;60.38
63306;BME280;50735;52.060;1.248;2022-08-03T03:53:37;101016.58;;;17.07;60.92
63306;BME280;50735;52.060;1.248;2022-08-03T03:56:05;101022.43;;;17.20;60.54
63306;BME280;50735;52.060;1.248;2022-08-03T03:58:32;101020.06;;;17.27;60.32
63306;BME280;50735;52.060;1.248;2022-08-03T04:01:00;101018.93;;;17.15;60.60
63306;BME280;50735;52.060;1.248;2022-08-03T04:03:26;101017.22;;;17.02;60.94
63306;BME280;50735;52.060;1.248;2022-08-03T04:05:54;101020.51;;;17.02;60.88
63306;BME280;50735;52.060;1.248;2022-08-03T04:08:21;101022.12;;;16.92;61.23
63306;BME280;50735;52.060;1.248;2022-08-03T04:10:55;101019.68;;;17.09;60.67
63306;BME280;50735;52.060;1.248;2022-08-03T04:13:32;101024.01;;;17.22;61.00
63306;BME280;50735;52.060;1.248;2022-08-03T04:16:00;101023.46;;;16.84;61.54
63306;BME280;50735;52.060;1.248;2022-08-03T04:18:29;101026.71;;;16.73;61.89
63306;BME280;50735;52.060;1.248;2022-08-03T04:21:00;101024.42;;;16.77;61.80
63306;BME280;50735;52.060;1.248;2022-08-03T04:23:30;101028.73;;;16.76;61.79
63306;BME280;50735;52.060;1.248;2022-08-03T04:26:02;101019.25;;;16.74;61.90
63306;BME280;50735;52.060;1.248;2022-08-03T04:28:31;101019.48;;;16.60;62.30
63306;BME280;50735;52.060;1.248;2022-08-03T04:31:02;101021.43;;;16.68;62.66
63306;BME280;50735;52.060;1.248;2022-08-03T04:33:32;101026.16;;;16.66;63.24
63306;BME280;50735;52.060;1.248;2022-08-03T04:36:01;101023.32;;;16.21;63.22
63306;BME280;50735;52.060;1.248;2022-08-03T04:38:33;101024.64;;;16.41;63.38
63306;BME280;50735;52.060;1.248;2022-08-03T04:41:03;101019.16;;;16.11;63.63
63306;BME280;50735;52.060;1.248;2022-08-03T04:43:31;101024.55;;;16.57;63.11
63306;BME280;50735;52.060;1.248;2022-08-03T04:45:59;101029.69;;;16.30;63.22
63306;BME280;50735;52.060;1.248;2022-08-03T04:48:27;101031.94;;;16.58;62.99
63306;BME280;50735;52.060;1.248;2022-08-03T04:50:54;101035.06;;;16.58;62.39
63306;BME280;50735;52.060;1.248;2022-08-03T04:53:22;101031.77;;;16.52;62.48
63306;BME280;50735;52.060;1.248;2022-08-03T04:55:49;101031.33;;;16.63;62.27
63306;BME280;50735;52.060;1.248;2022-08-03T04:58:16;101038.40;;;16.88;62.22
63306;BME280;50735;52.060;1.248;2022-08-03T05:00:43;101036.69;;;16.72;62.04
63306;BME280;50735;52.060;1.248;2022-08-03T05:03:09;101038.94;;;16.99;61.96
63306;BME280;50735;52.060;1.248;2022-08-03T05:05:36;101045.46;;;17.09;61.66
63306;BME280;50735;52.060;1.248;2022-08-03T05:08:04;101052.34;;;16.69;62.20
63306;BME280;50735;52.060;1.248;2022-08-03T05:10:31;101054.93;;;17.04;61.96
63306;BME280;50735;52.060;1.248;2022-08-03T05:12:57;101064.27;;;16.65;62.43
63306;BME280;50735;52.060;1.248;2022-08-03T05:15:25;101061.93;;;16.65;63.04
63306;BME280;50735;52.060;1.248;2022-08-03T05:17:52;101063.15;;;16.64;62.59
63306;BME280;50735;52.060;1.248;2022-08-03T05:20:18;101058.70;;;16.47;62.95
63306;BME280;50735;52.060;1.248;2022-08-03T05:22:46;101066.55;;;16.61;62.63
63306;BME280;50735;52.060;1.248;2022-08-03T05:25:13;101066.08;;;16.79;62.17
63306;BME280;50735;52.060;1.248;2022-08-03T05:27:41;101073.00;;;17.47;61.48
63306;BME280;50735;52.060;1.248;2022-08-03T05:30:08;101073.72;;;17.19;61.23
63306;BME280;50735;52.060;1.248;2022-08-03T05:32:35;101078.63;;;17.46;60.45
63306;BME280;50735;52.060;1.248;2022-08-03T05:35:03;101082.37;;;17.22;61.03
63306;BME280;50735;52.060;1.248;2022-08-03T05:37:30;101087.58;;;17.28;60.86
63306;BME280;50735;52.060;1.248;2022-08-03T05:39:57;101087.26;;;17.44;60.57
63306;BME280;50735;52.060;1.248;2022-08-03T05:42:25;101087.01;;;17.31;60.77
63306;BME280;50735;52.060;1.248;2022-08-03T05:44:52;101090.71;;;17.55;60.21
63306;BME280;50735;52.060;1.248;2022-08-03T05:47:19;101091.43;;;17.55;59.83
63306;BME280;50735;52.060;1.248;2022-08-03T05:49:45;101090.55;;;17.76;59.99
63306;BME280;50735;52.060;1.248;2022-08-03T05:52:12;101086.70;;;17.96;59.31
63306;BME280;50735;52.060;1.248;2022-08-03T05:54:39;101087.34;;;17.47;60.50
63306;BME280;50735;52.060;1.248;2022-08-03T05:57:06;101089.15;;;17.61;60.20
63306;BME280;50735;52.060;1.248;2022-08-03T05:59:37;101089.91;;;17.49;60.64
63306;BME280;50735;52.060;1.248;2022-08-03T06:02:04;101088.61;;;17.63;60.23
63306;BME280;50735;52.060;1.248;2022-08-03T06:04:30;101091.76;;;17.48;60.33
63306;BME280;50735;52.060;1.248;2022-08-03T06:06:57;101087.67;;;17.51;60.55
63306;BME280;50735;52.060;1.248;2022-08-03T06:09:23;101088.66;;;17.63;60.12
63306;BME280;50735;52.060;1.248;2022-08-03T06:11:50;101085.92;;;17.79;59.71
63306;BME280;50735;52.060;1.248;2022-08-03T06:14:16;101086.65;;;17.73;59.92
63306;BME280;50735;52.060;1.248;2022-08-03T06:16:43;101080.89;;;17.55;60.38
63306;BME280;50735;52.060;1.248;2022-08-03T06:19:10;101083.90;;;17.64;60.13
63306;BME280;50735;52.060;1.248;2022-08-03T06:21:36;101083.63;;;17.64;59.61
63306;BME280;50735;52.060;1.248;2022-08-03T06:24:03;101090.03;;;17.69;59.85
63306;BME280;50735;52.060;1.248;2022-08-03T06:26:31;101091.53;;;17.29;60.26
63306;BME280;50735;52.060;1.248;2022-08-03T06:28:58;101087.05;;;17.28;60.56
63306;BME280;50735;52.060;1.248;2022-08-03T06:31:25;101099.34;;;17.37;60.68
63306;BME280;50735;52.060;1.248;2022-08-03T06:33:53;101096.30;;;17.17;61.27
63306;BME280;50735;52.060;1.248;2022-08-03T06:36:20;101092.82;;;17.39;60.73
63306;BME280;50735;52.060;1.248;2022-08-03T06:38:47;101089.69;;;17.66;60.08
63306;BME280;50735;52.060;1.248;2022-08-03T06:41:14;101093.74;;;17.70;59.95
63306;BME280;50735;52.060;1.248;2022-08-03T06:43:40;101092.21;;;17.81;59.56
63306;BME280;50735;52.060;1.248;2022-08-03T06:46:07;101095.27;;;17.57;60.24
63306;BME280;50735;52.060;1.248;2022-08-03T06:48:34;101092.67;;;17.41;60.24
63306;BME280;50735;52.060;1.248;2022-08-03T06:51:01;101093.54;;;17.65;59.67
63306;BME280;50735;52.060;1.248;2022-08-03T06:53:28;101094.12;;;17.76;59.73
63306;BME280;50735;52.060;1.248;2022-08-03T06:55:55;101091.95;;;17.72;59.35
63306;BME280;50735;52.060;1.248;2022-08-03T06:58:22;101094.00;;;18.04;59.18
63306;BME280;50735;52.060;1.248;2022-08-03T07:00:48;101090.96;;;17.76;58.81
63306;BME280;50735;52.060;1.248;2022-08-03T07:03:15;101088.46;;;17.86;58.77
63306;BME280;50735;52.060;1.248;2022-08-03T07:05:43;101087.48;;;18.37;58.40
63306;BME280;50735;52.060;1.248;2022-08-03T07:08:10;101089.75;;;18.15;58.41
63306;BME280;50735;52.060;1.248;2022-08-03T07:10:37;101090.92;;;18.28;57.87
63306;BME280;50735;52.060;1.248;2022-08-03T07:13:05;101089.94;;;18.18;57.81
63306;BME280;50735;52.060;1.248;2022-08-03T07:15:33;101082.26;;;18.47;57.13
63306;BME280;50735;52.060;1.248;2022-08-03T07:18:00;101087.73;;;18.58;57.13
63306;BME280;50735;52.060;1.248;2022-08-03T07:20:27;101088.91;;;18.38;57.13
63306;BME280;50735;52.060;1.248;2022-08-03T07:22:55;101081.92;;;18.86;56.69
63306;BME280;50735;52.060;1.248;2022-08-03T07:25:22;101081.82;;;18.29;57.30
63306;BME280;50735;52.060;1.248;2022-08-03T07:27:49;101085.62;;;18.65;56.77
63306;BME280;50735;52.060;1.248;2022-08-03T07:30:17;101084.59;;;18.34;56.82
63306;BME280;50735;52.060;1.248;2022-08-03T07:32:44;101081.16;;;18.87;56.42
63306;BME280;50735;52.060;1.248;2022-08-03T07:35:10;101079.68;;;18.87;55.92
63306;BME280;50735;52.060;1.248;2022-08-03T07:37:38;101082.68;;;19.08;55.05
63306;BME280;50735;52.060;1.248;2022-08-03T07:40:06;101082.49;;;19.24;55.04
63306;BME280;50735;52.060;1.248;2022-08-03T07:42:33;101087.19;;;19.56;54.87
63306;BME280;50735;52.060;1.248;2022-08-03T07:45:00;101087.57;;;19.42;54.35
63306;BME280;50735;52.060;1.248;2022-08-03T07:47:30;101092.05;;;19.46;54.24
63306;BME280;50735;52.060;1.248;2022-08-03T07:49:57;101082.47;;;19.66;53.88
63306;BME280;50735;52.060;1.248;2022-08-03T07:52:24;101087.07;;;19.42;53.93
63306;BME280;50735;52.060;1.248;2022-08-03T07:54:51;101084.13;;;19.83;53.46
63306;BME280;50735;52.060;1.248;2022-08-03T07:57:17;101094.00;;;19.49;53.73
63306;BME280;50735;52.060;1.248;2022-08-03T07:59:45;101093.58;;;19.34;54.27
63306;BME280;50735;52.060;1.248;2022-08-03T08:02:12;101087.53;;;19.37;55.11
63306;BME280;50735;52.060;1.248;2022-08-03T08:04:39;101092.71;;;19.23;54.85
63306;BME280;50735;52.060;1.248;2022-08-03T08:07:07;101086.49;;;19.40;54.52
63306;BME280;50735;52.060;1.248;2022-08-03T08:09:33;101088.08;;;19.43;53.99
63306;BME280;50735;52.060;1.248;2022-08-03T08:12:00;101089.93;;;19.90;53.29
63306;BME280;50735;52.060;1.248;2022-08-03T08:14:26;101084.80;;;20.01;52.99
63306;BME280;50735;52.060;1.248;2022-08-03T08:16:54;101087.81;;;19.87;53.03
63306;BME280;50735;52.060;1.248;2022-08-03T08:19:21;101088.09;;;20.07;53.08
63306;BME280;50735;52.060;1.248;2022-08-03T08:21:48;101089.71;;;20.32;52.64
63306;BME280;50735;52.060;1.248;2022-08-03T08:24:14;101085.85;;;20.10;52.39
63306;BME280;50735;52.060;1.248;2022-08-03T08:26:41;101082.41;;;20.44;51.70
63306;BME280;50735;52.060;1.248;2022-08-03T08:29:07;101075.45;;;20.71;51.24
63306;BME280;50735;52.060;1.248;2022-08-03T08:31:35;101075.74;;;20.41;51.56
63306;BME280;50735;52.060;1.248;2022-08-03T08:34:02;101077.32;;;20.97;50.48
63306;BME280;50735;52.060;1.248;2022-08-03T08:36:29;101081.47;;;21.30;49.05
63306;BME280;50735;52.060;1.248;2022-08-03T08:38:55;101090.72;;;21.19;48.21
63306;BME280;50735;52.060;1.248;2022-08-03T08:41:23;101083.31;;;20.99;48.62
63306;BME280;50735;52.060;1.248;2022-08-03T08:43:49;101090.24;;;21.09;48.31
63306;BME280;50735;52.060;1.248;2022-08-03T08:46:17;101087.53;;;21.37;47.89
63306;BME280;50735;52.060;1.248;2022-08-03T08:48:45;101081.55;;;21.41;47.09
63306;BME280;50735;52.060;1.248;2022-08-03T08:51:15;101086.21;;;22.17;46.64
63306;BME280;50735;52.060;1.248;2022-08-03T08:53:48;101083.45;;;21.71;46.40
63306;BME280;50735;52.060;1.248;2022-08-03T08:56:16;101074.98;;;21.99;45.26
63306;BME280;50735;52.060;1.248;2022-08-03T08:58:48;101080.22;;;22.16;44.70
63306;BME280;50735;52.060;1.248;2022-08-03T09:01:17;101082.98;;;22.05;44.58
63306;BME280;50735;52.060;1.248;2022-08-03T09:03:45;101086.21;;;22.45;43.98
63306;BME280;50735;52.060;1.248;2022-08-03T09:06:12;101076.91;;;22.69;43.69
63306;BME280;50735;52.060;1.248;2022-08-03T09:08:39;101078.64;;;23.50;43.12
63306;BME280;50735;52.060;1.248;2022-08-03T09:11:06;101080.24;;;23.33;42.33
63306;BME280;50735;52.060;1.248;2022-08-03T09:13:35;101078.90;;;23.16;42.51
63306;BME280;50735;52.060;1.248;2022-08-03T09:16:11;101080.56;;;23.50;42.50
63306;BME280;50735;52.060;1.248;2022-08-03T09:18:38;101078.51;;;24.39;41.94
63306;BME280;50735;52.060;1.248;2022-08-03T09:21:15;101080.79;;;23.94;41.34
63306;BME280;50735;52.060;1.248;2022-08-03T09:23:44;101075.14;;;24.61;40.43
63306;BME280;50735;52.060;1.248;2022-08-03T09:26:11;101080.12;;;24.31;40.14
63306;BME280;50735;52.060;1.248;2022-08-03T09:28:38;101066.90;;;24.87;39.44
63306;BME280;50735;52.060;1.248;2022-08-03T09:31:06;101064.28;;;24.82;39.70
63306;BME280;50735;52.060;1.248;2022-08-03T09:33:45;101068.43;;;24.64;39.27
63306;BME280;50735;52.060;1.248;2022-08-03T09:36:33;101069.83;;;24.89;39.03
63306;BME280;50735;52.060;1.248;2022-08-03T09:39:02;101065.23;;;24.97;38.38
63306;BME280;50735;52.060;1.248;2022-08-03T09:41:29;101057.10;;;25.28;38.07
63306;BME280;50735;52.060;1.248;2022-08-03T09:43:56;101061.19;;;25.29;37.99
63306;BME280;50735;52.060;1.248;2022-08-03T09:46:24;101060.56;;;25.87;37.07
63306;BME280;50735;52.060;1.248;2022-08-03T09:48:51;101057.32;;;25.67;37.06
63306;BME280;50735;52.060;1.248;2022-08-03T09:51:23;101065.54;;;26.00;36.99
63306;BME280;50735;52.060;1.248;2022-08-03T09:53:50;101064.08;;;25.74;36.96
63306;BME280;50735;52.060;1.248;2022-08-03T09:56:17;101068.20;;;26.08;37.08
63306;BME280;50735;52.060;1.248;2022-08-03T09:58:45;101065.14;;;25.46;37.34
63306;BME280;50735;52.060;1.248;2022-08-03T10:01:12;101061.05;;;26.04;37.01
63306;BME280;50735;52.060;1.248;2022-08-03T10:03:39;101059.11;;;26.00;36.98
63306;BME280;50735;52.060;1.248;2022-08-03T10:06:15;101060.00;;;25.97;37.10
63306;BME280;50735;52.060;1.248;2022-08-03T10:08:43;101058.45;;;26.12;36.33
63306;BME280;50735;52.060;1.248;2022-08-03T10:11:10;101063.89;;;26.25;36.59
63306;BME280;50735;52.060;1.248;2022-08-03T10:13:39;101056.20;;;26.39;36.50
63306;BME280;50735;52.060;1.248;2022-08-03T10:16:06;101053.43;;;26.71;36.23
63306;BME280;50735;52.060;1.248;2022-08-03T10:18:33;101056.14;;;26.62;36.09
63306;BME280;50735;52.060;1.248;2022-08-03T10:21:03;101057.36;;;26.72;35.86
63306;BME280;50735;52.060;1.248;2022-08-03T10:23:33;101053.45;;;27.27;35.42
63306;BME280;50735;52.060;1.248;2022-08-03T10:26:02;101052.98;;;27.14;35.46
63306;BME280;50735;52.060;1.248;2022-08-03T10:28:34;101043.83;;;27.90;34.89
63306;BME280;50735;52.060;1.248;2022-08-03T10:31:04;101041.76;;;28.07;34.21
63306;BME280;50735;52.060;1.248;2022-08-03T10:33:36;101042.28;;;27.80;34.48
63306;BME280;50735;52.060;1.248;2022-08-03T10:36:05;101041.61;;;27.75;34.20
63306;BME280;50735;52.060;1.248;2022-08-03T10:38:37;101038.96;;;28.24;33.77
63306;BME280;50735;52.060;1.248;2022-08-03T10:41:06;101047.36;;;28.37;33.94
63306;BME280;50735;52.060;1.248;2022-08-03T10:43:41;101039.24;;;27.79;34.11
63306;BME280;50735;52.060;1.248;2022-08-03T10:46:09;101039.94;;;27.87;34.16
63306;BME280;50735;52.060;1.248;2022-08-03T10:48:37;101039.37;;;27.96;33.96
63306;BME280;50735;52.060;1.248;2022-08-03T10:51:04;101041.18;;;28.38;33.72
63306;BME280;50735;52.060;1.248;2022-08-03T10:53:35;101035.52;;;28.76;33.27
63306;BME280;50735;52.060;1.248;2022-08-03T10:56:04;101035.89;;;28.51;33.26
63306;BME280;50735;52.060;1.248;2022-08-03T10:58:48;101033.47;;;28.33;33.61
63306;BME280;50735;52.060;1.248;2022-08-03T11:01:16;101035.59;;;28.53;33.40
63306;BME280;50735;52.060;1.248;2022-08-03T11:04:16;101029.52;;;28.20;33.92
63306;BME280;50735;52.060;1.248;2022-08-03T11:06:45;101024.71;;;28.42;33.52
63306;BME280;50735;52.060;1.248;2022-08-03T11:09:16;101038.72;;;28.24;33.55
63306;BME280;50735;52.060;1.248;2022-08-03T11:11:46;101024.72;;;28.39;33.69
63306;BME280;50735;52.060;1.248;2022-08-03T11:14:16;101027.15;;;28.25;33.79
63306;BME280;50735;52.060;1.248;2022-08-03T11:16:45;101028.96;;;28.38;33.86
63306;BME280;50735;52.060;1.248;2022-08-03T11:19:15;101041.50;;;28.11;34.18
63306;BME280;50735;52.060;1.248;2022-08-03T11:21:53;101027.22;;;28.77;33.52
63306;BME280;50735;52.060;1.248;2022-08-03T11:25:24;101033.88;;;28.55;33.54
63306;BME280;50735;52.060;1.248;2022-08-03T11:28:24;101035.90;;;28.39;33.99
63306;BME280;50735;52.060;1.248;2022-08-03T11:30:51;101032.71;;;28.09;33.85
63306;BME280;50735;52.060;1.248;2022-08-03T11:33:28;101033.64;;;27.68;34.83
63306;BME280;50735;52.060;1.248;2022-08-03T11:36:00;101030.89;;;27.73;35.09
63306;BME280;50735;52.060;1.248;2022-08-03T11:38:28;101029.21;;;27.99;34.58
63306;BME280;50735;52.060;1.248;2022-08-03T11:40:55;101026.53;;;27.83;34.74
63306;BME280;50735;52.060;1.248;2022-08-03T11:43:55;101023.47;;;27.22;35.31
63306;BME280;50735;52.060;1.248;2022-08-03T11:46:22;101020.76;;;27.18;35.59
63306;BME280;50735;52.060;1.248;2022-08-03T11:48:50;101019.63;;;26.86;36.23
63306;BME280;50735;52.060;1.248;2022-08-03T11:51:20;101024.18;;;27.15;36.01
63306;BME280;50735;52.060;1.248;2022-08-03T11:53:51;101017.49;;;27.34;35.65
63306;BME280;50735;52.060;1.248;2022-08-03T11:56:18;101012.62;;;27.57;35.47
63306;BME280;50735;52.060;1.248;2022-08-03T11:58:46;101009.32;;;28.06;35.46
63306;BME280;50735;52.060;1.248;2022-08-03T12:01:13;101014.60;;;27.53;35.40
63306;BME280;50735;52.060;1.248;2022-08-03T12:03:41;101016.78;;;27.74;35.11
63306;BME280;50735;52.060;1.248;2022-08-03T12:06:09;101024.46;;;27.00;36.05
63306;BME280;50735;52.060;1.248;2022-08-03T12:08:38;101019.01;;;27.12;36.46
63306;BME280;50735;52.060;1.248;2022-08-03T12:11:06;101018.13;;;27.49;36.13
63306;BME280;50735;52.060;1.248;2022-08-03T12:13:37;101021.39;;;27.63;35.64
63306;BME280;50735;52.060;1.248;2022-08-03T12:16:05;101018.77;;;27.53;35.30
63306;BME280;50735;52.060;1.248;2022-08-03T12:18:32;101017.86;;;27.30;35.54
63306;BME280;50735;52.060;1.248;2022-08-03T12:21:04;101019.17;;;27.13;35.52
63306;BME280;50735;52.060;1.248;2022-08-03T12:23:32;101017.47;;;27.35;35.85
63306;BME280;50735;52.060;1.248;2022-08-03T12:26:01;101011.94;;;27.78;35.41
63306;BME280;50735;52.060;1.248;2022-08-03T12:28:29;101014.74;;;27.36;35.82
63306;BME280;50735;52.060;1.248;2022-08-03T12:31:00;101014.84;;;27.49;35.75
63306;BME280;50735;52.060;1.248;2022-08-03T12:33:27;101017.53;;;26.95;35.74
63306;BME280;50735;52.060;1.248;2022-08-03T12:36:04;101012.54;;;27.16;36.15
63306;BME280;50735;52.060;1.248;2022-08-03T12:38:32;101003.44;;;27.64;35.64
63306;BME280;50735;52.060;1.248;2022-08-03T12:41:01;101006.35;;;27.21;35.94
63306;BME280;50735;52.060;1.248;2022-08-03T12:43:29;101013.52;;;27.13;35.92
63306;BME280;50735;52.060;1.248;2022-08-03T12:46:13;101012.46;;;27.10;36.45
63306;BME280;50735;52.060;1.248;2022-08-03T12:48:59;101017.93;;;26.88;36.80
63306;BME280;50735;52.060;1.248;2022-08-03T12:51:26;101014.86;;;26.58;36.88
63306;BME280;50735;52.060;1.248;2022-08-03T12:53:55;101013.79;;;26.97;36.70
63306;BME280;50735;52.060;1.248;2022-08-03T12:56:23;101014.80;;;26.80;36.70
63306;BME280;50735;52.060;1.248;2022-08-03T12:58:50;101015.76;;;27.03;36.84
63306;BME280;50735;52.060;1.248;2022-08-03T13:01:18;101015.49;;;27.07;36.33